createdAt,value
2018-02-04T00:02:22.657Z,12.50
2018-02-04T00:04:52.440Z,13.23
2018-02-04T00:07:20.710Z,12.10
2018-02-04T00:09:49.029Z,12.80
2018-02-04T00:12:17.303Z,13.60
2018-02-04T00:14:45.570Z,13.53
2018-02-04T00:17:13.845Z,12.23
2018-02-04T00:19:42.238Z,13.70
2018-02-04T00:22:10.492Z,11.80
2018-02-04T00:24:38.760Z,12.53
2018-02-04T00:27:07.786Z,12.97
2018-02-04T00:29:36.050Z,13.87
2018-02-04T00:32:04.299Z,12.73
2018-02-04T00:34:32.641Z,12.63
2018-02-04T00:37:00.888Z,11.40
2018-02-04T00:39:30.027Z,13.93
2018-02-04T00:41:58.278Z,14.20
2018-02-04T00:44:26.585Z,13.00
2018-02-04T00:46:54.846Z,12.83
2018-02-04T00:49:23.147Z,11.47
2018-02-04T00:51:51.438Z,13.90
2018-02-04T00:54:19.810Z,14.30
2018-02-04T00:56:48.096Z,14.07
2018-02-04T00:59:16.369Z,13.67
2018-02-04T01:01:44.613Z,12.97
2018-02-04T01:04:13.658Z,12.63
2018-02-04T01:06:41.922Z,14.03
2018-02-04T01:09:10.190Z,13.63
2018-02-04T01:11:38.440Z,13.00
2018-02-04T01:14:07.497Z,14.87
2018-02-04T01:16:35.764Z,13.73
2018-02-04T01:19:04.033Z,15.63
2018-02-04T01:21:32.280Z,12.47
2018-02-04T01:24:01.314Z,12.50
2018-02-04T01:26:29.577Z,12.97
2018-02-04T01:28:57.869Z,12.17
2018-02-04T01:31:26.115Z,12.80
2018-02-04T01:33:55.152Z,13.20
2018-02-04T01:36:23.401Z,13.10
2018-02-04T01:38:52.431Z,12.37
2018-02-04T01:41:20.719Z,13.10
2018-02-04T01:43:49.829Z,14.53
2018-02-04T01:46:18.080Z,12.00
2018-02-04T01:48:46.391Z,13.83
2018-02-04T01:51:14.665Z,12.63
2018-02-04T01:53:42.935Z,12.73
2018-02-04T01:56:11.328Z,13.40
2018-02-04T01:58:39.601Z,12.60
2018-02-04T02:01:07.853Z,13.20
2018-02-04T02:03:36.895Z,12.60
2018-02-04T02:06:05.143Z,11.83
2018-02-04T02:08:33.450Z,12.70
2018-02-04T02:11:01.700Z,12.93
2018-02-04T02:13:30.732Z,12.83
2018-02-04T02:15:58.982Z,13.57
2018-02-04T02:18:28.042Z,13.27
2018-02-04T02:20:56.280Z,12.67
2018-02-04T02:23:24.550Z,12.30
2018-02-04T02:25:52.797Z,11.33
2018-02-04T02:28:22.579Z,13.33
2018-02-04T02:30:50.830Z,12.27
2018-02-04T02:33:19.096Z,11.00
2018-02-04T02:35:48.141Z,12.43
2018-02-04T02:38:16.413Z,12.37
2018-02-04T02:40:44.712Z,12.73
2018-02-04T02:43:12.950Z,12.07
2018-02-04T02:45:41.218Z,11.23
2018-02-04T02:48:09.487Z,13.30
2018-02-04T02:50:37.763Z,14.10
2018-02-04T02:53:06.005Z,11.73
2018-02-04T02:55:34.284Z,12.80
2018-02-04T02:58:03.297Z,12.00
2018-02-04T03:00:31.629Z,11.67
2018-02-04T03:02:59.872Z,10.90
2018-02-04T03:05:28.142Z,11.67
2018-02-04T03:07:56.398Z,12.30
2018-02-04T03:10:24.671Z,11.30
2018-02-04T03:12:52.917Z,10.77
2018-02-04T03:15:22.686Z,11.80
2018-02-04T03:17:50.937Z,11.57
2018-02-04T03:20:19.216Z,11.40
2018-02-04T03:22:48.231Z,11.47
2018-02-04T03:25:16.548Z,12.03
2018-02-04T03:27:44.818Z,12.57
2018-02-04T03:30:13.074Z,12.47
2018-02-04T03:32:41.334Z,11.60
2018-02-04T03:35:10.485Z,12.23
2018-02-04T03:37:38.768Z,12.40
2018-02-04T03:40:07.042Z,11.73
2018-02-04T03:42:35.292Z,12.53
2018-02-04T03:45:03.567Z,10.80
2018-02-04T03:47:31.824Z,11.87
2018-02-04T03:50:00.095Z,11.43
2018-02-04T03:52:28.338Z,12.10
2018-02-04T03:54:56.605Z,12.77
2018-02-04T03:57:24.865Z,11.13
2018-02-04T03:59:53.943Z,12.23
2018-02-04T04:02:22.198Z,11.63
2018-02-04T04:04:50.480Z,11.97
2018-02-04T04:07:18.728Z,11.23
2018-02-04T04:09:47.026Z,10.50
2018-02-04T04:12:15.285Z,11.13
2018-02-04T04:14:43.553Z,10.90
2018-02-04T04:17:11.806Z,12.53
2018-02-04T04:19:40.841Z,12.80
2018-02-04T04:22:09.094Z,12.07
2018-02-04T04:24:38.130Z,12.03
2018-02-04T04:27:06.382Z,11.63
2018-02-04T04:29:35.648Z,11.90
2018-02-04T04:32:03.870Z,13.90
2018-02-04T04:34:33.018Z,12.97
2018-02-04T04:37:01.267Z,11.50
2018-02-04T04:39:29.540Z,13.07
2018-02-04T04:41:59.457Z,11.20
2018-02-04T04:44:28.491Z,13.30
2018-02-04T04:46:56.743Z,11.70
2018-02-04T04:49:25.072Z,11.17
2018-02-04T04:51:53.321Z,12.30
2018-02-04T04:54:21.595Z,11.50
2018-02-04T04:56:49.914Z,12.37
2018-02-04T04:59:18.177Z,12.20
2018-02-04T05:01:46.424Z,12.97
2018-02-04T05:04:15.451Z,11.97
2018-02-04T05:06:43.705Z,12.90
2018-02-04T05:09:11.977Z,11.83
2018-02-04T05:11:41.043Z,12.70
2018-02-04T05:14:09.294Z,12.37
2018-02-04T05:16:37.542Z,11.37
2018-02-04T05:19:06.573Z,12.40
2018-02-04T05:21:34.817Z,13.03
2018-02-04T05:24:04.002Z,12.20
2018-02-04T05:26:32.249Z,11.90
2018-02-04T05:29:00.530Z,12.50
2018-02-04T05:31:28.821Z,13.20
2018-02-04T05:33:57.104Z,13.53
2018-02-04T05:36:25.369Z,13.47
2018-02-04T05:38:53.645Z,12.00
2018-02-04T05:41:21.910Z,12.90
2018-02-04T05:43:50.158Z,12.40
2018-02-04T05:46:19.193Z,12.70
2018-02-04T05:48:47.454Z,11.30
2018-02-04T05:51:16.517Z,10.63
2018-02-04T05:53:44.792Z,11.63
2018-02-04T05:56:13.068Z,11.23
2018-02-04T05:58:41.326Z,12.20
2018-02-04T06:01:09.614Z,11.23
2018-02-04T06:03:37.862Z,9.80
2018-02-04T06:06:06.893Z,11.90
2018-02-04T06:08:35.143Z,10.73
2018-02-04T06:11:04.182Z,10.27
2018-02-04T06:13:32.444Z,10.70
2018-02-04T06:16:00.689Z,9.90
2018-02-04T06:18:28.938Z,11.40
2018-02-04T06:20:57.216Z,11.03
2018-02-04T06:23:25.513Z,11.40
2018-02-04T06:25:55.278Z,11.70
2018-02-04T06:28:23.534Z,10.73
2018-02-04T06:30:52.595Z,13.27
2018-02-04T06:33:20.837Z,13.90
2018-02-04T06:35:49.102Z,13.40
2018-02-04T06:38:17.433Z,13.27
2018-02-04T06:40:46.663Z,11.60
2018-02-04T06:43:15.136Z,11.60
2018-02-04T06:45:43.409Z,10.40
2018-02-04T06:48:11.649Z,10.00
2018-02-04T06:50:39.917Z,11.73
2018-02-04T06:53:08.170Z,11.07
2018-02-04T06:55:37.938Z,9.83
2018-02-04T06:58:06.321Z,9.23
2018-02-04T07:00:34.583Z,10.20
2018-02-04T07:03:02.829Z,10.37
2018-02-04T07:05:31.184Z,12.50
2018-02-04T07:07:59.433Z,9.00
2018-02-04T07:10:27.734Z,10.30
2018-02-04T07:12:55.994Z,10.00
2018-02-04T07:15:24.254Z,9.73
2018-02-04T07:17:53.274Z,8.50
2018-02-04T07:20:21.526Z,7.80
2018-02-04T07:22:50.594Z,8.77
2018-02-04T07:25:18.862Z,8.40
2018-02-04T07:27:47.134Z,9.00
2018-02-04T07:30:15.431Z,9.13
2018-02-04T07:32:43.675Z,8.68
2018-02-04T07:35:11.933Z,9.20
2018-02-04T07:37:40.947Z,8.90
2018-02-04T07:40:09.978Z,9.13
2018-02-04T07:42:38.271Z,9.90
2018-02-04T07:45:06.530Z,8.90
2018-02-04T07:47:34.782Z,9.98
2018-02-04T07:50:03.807Z,9.53
2018-02-04T07:52:32.110Z,9.73
2018-02-04T07:55:00.367Z,10.70
2018-02-04T07:57:28.635Z,11.50
2018-02-04T07:59:57.660Z,9.47
2018-02-04T08:02:25.927Z,9.77
2018-02-04T08:04:54.235Z,11.32
2018-02-04T08:07:22.530Z,10.43
2018-02-04T08:09:51.691Z,10.43
2018-02-04T08:12:19.973Z,10.90
2018-02-04T08:14:50.175Z,9.40
2018-02-04T08:17:18.430Z,9.38
2018-02-04T08:19:46.686Z,9.20
2018-02-04T08:22:15.125Z,8.83
2018-02-04T08:24:43.386Z,11.20
2018-02-04T08:27:11.633Z,10.10
2018-02-04T08:29:39.901Z,10.03
2018-02-04T08:32:08.212Z,11.77
2018-02-04T08:34:36.457Z,10.30
2018-02-04T08:37:04.765Z,11.45
2018-02-04T08:39:33.034Z,11.70
2018-02-04T08:42:01.326Z,12.33
2018-02-04T08:44:29.612Z,12.33
2018-02-04T08:46:57.890Z,10.75
2018-02-04T08:49:26.153Z,12.00
2018-02-04T08:51:54.433Z,11.40
2018-02-04T08:54:22.697Z,11.83
2018-02-04T08:56:51.024Z,12.30
2018-02-04T08:59:19.289Z,11.33
2018-02-04T09:01:47.707Z,12.20
2018-02-04T09:04:15.937Z,12.23
2018-02-04T09:06:44.243Z,12.03
2018-02-04T09:09:12.498Z,11.13
2018-02-04T09:11:40.759Z,12.17
2018-02-04T09:14:09.798Z,9.70
2018-02-04T09:16:38.052Z,8.50
2018-02-04T09:19:07.336Z,9.40
2018-02-04T09:21:39.352Z,9.70
2018-02-04T09:24:07.593Z,9.10
2018-02-04T09:26:36.621Z,9.50
2018-02-04T09:29:04.869Z,8.67
2018-02-04T09:31:33.139Z,10.80
2018-02-04T09:34:01.395Z,10.00
2018-02-04T09:36:29.662Z,10.93
2018-02-04T09:38:57.938Z,10.23
2018-02-04T09:41:26.226Z,10.07
2018-02-04T09:43:54.871Z,11.45
2018-02-04T09:46:23.145Z,10.15
2018-02-04T09:48:51.389Z,12.57
2018-02-04T09:51:19.663Z,10.77
2018-02-04T09:53:47.924Z,8.87
2018-02-04T09:56:16.194Z,10.33
2018-02-04T09:58:44.468Z,11.37
2018-02-04T10:01:12.709Z,9.83
2018-02-04T10:03:41.726Z,10.20
2018-02-04T10:06:10.142Z,10.13
2018-02-04T10:08:38.421Z,10.83
2018-02-04T10:11:06.698Z,11.20
2018-02-04T10:13:34.950Z,11.23
2018-02-04T10:16:03.236Z,11.07
2018-02-04T10:18:31.483Z,10.30
2018-02-04T10:21:00.522Z,10.20
2018-02-04T10:23:28.774Z,10.20
2018-02-04T10:25:57.804Z,9.83
2018-02-04T10:28:26.058Z,9.40
2018-02-04T10:30:54.332Z,10.17
2018-02-04T10:33:23.370Z,9.37
2018-02-04T10:35:52.461Z,10.57
2018-02-04T10:38:20.717Z,9.87
2018-02-04T10:40:49.844Z,10.20
2018-02-04T10:43:18.135Z,18.70
2018-02-04T10:45:46.403Z,10.60
2018-02-04T10:48:14.662Z,10.10
2018-02-04T10:50:48.572Z,10.30
2018-02-04T10:53:16.878Z,10.87
2018-02-04T10:55:45.153Z,9.97
2018-02-04T10:58:13.404Z,11.03
2018-02-04T11:00:42.439Z,10.07
2018-02-04T11:03:10.698Z,11.60
2018-02-04T11:05:38.975Z,9.70
2018-02-04T11:08:07.286Z,9.63
2018-02-04T11:10:35.573Z,9.80
2018-02-04T11:13:03.826Z,10.20
2018-02-04T11:15:32.100Z,10.67
2018-02-04T11:18:00.353Z,12.00
2018-02-04T11:20:28.626Z,10.80
2018-02-04T11:22:57.694Z,11.60
2018-02-04T11:25:25.988Z,10.93
2018-02-04T11:27:54.240Z,11.20
2018-02-04T11:30:22.507Z,10.67
2018-02-04T11:32:50.760Z,10.93
2018-02-04T11:35:19.794Z,10.13
2018-02-04T11:37:48.124Z,10.57
2018-02-04T11:40:16.402Z,10.00
2018-02-04T11:42:44.747Z,10.13
2018-02-04T11:45:12.994Z,9.50
2018-02-04T11:47:41.269Z,10.77
2018-02-04T11:50:10.287Z,9.40
2018-02-04T11:52:38.591Z,8.87
2018-02-04T11:55:06.832Z,7.87
2018-02-04T11:57:35.861Z,9.00
2018-02-04T12:00:04.106Z,9.67
2018-02-04T12:02:33.161Z,9.20
2018-02-04T12:05:01.432Z,9.40
2018-02-04T12:07:29.990Z,9.73
2018-02-04T12:09:58.237Z,9.30
2018-02-04T12:12:27.294Z,9.60
2018-02-04T12:14:55.580Z,9.17
2018-02-04T12:17:23.848Z,10.23
2018-02-04T12:19:52.102Z,8.87
2018-02-04T12:22:20.374Z,9.87
2018-02-04T12:24:49.385Z,10.30
2018-02-04T12:27:18.413Z,10.10
2018-02-04T12:29:46.715Z,9.50
2018-02-04T12:32:14.961Z,9.20
2018-02-04T12:34:43.254Z,10.07
2018-02-04T12:37:11.623Z,9.13
2018-02-04T12:39:40.154Z,9.00
2018-02-04T12:42:08.816Z,11.67
2018-02-04T12:44:37.327Z,9.37
2018-02-04T12:47:05.692Z,11.67
2018-02-04T12:49:34.401Z,9.57
2018-02-04T12:52:04.033Z,9.60
2018-02-04T12:54:32.657Z,10.50
2018-02-04T12:57:01.292Z,10.30
2018-02-04T12:59:29.643Z,10.30
2018-02-04T13:01:58.031Z,10.00
2018-02-04T13:04:26.284Z,8.20
2018-02-04T13:06:54.622Z,10.60
2018-02-04T13:09:22.985Z,10.10
2018-02-04T13:11:51.233Z,10.77
2018-02-04T13:14:19.481Z,10.50
2018-02-04T13:16:48.570Z,10.03
2018-02-04T13:19:17.598Z,10.97
2018-02-04T13:21:45.870Z,11.00
2018-02-04T13:24:14.914Z,11.03
2018-02-04T13:26:43.229Z,9.93
2018-02-04T13:29:11.520Z,10.00
2018-02-04T13:31:39.778Z,9.30
2018-02-04T13:34:08.034Z,10.63
2018-02-04T13:36:36.342Z,9.97
2018-02-04T13:39:04.603Z,9.70
2018-02-04T13:41:32.942Z,9.80
2018-02-04T13:44:01.194Z,10.70
2018-02-04T13:46:29.469Z,9.40
2018-02-04T13:48:57.751Z,10.53
2018-02-04T13:51:27.114Z,10.17
2018-02-04T13:53:55.444Z,9.50
2018-02-04T13:56:23.720Z,10.00
2018-02-04T13:58:51.970Z,9.57
2018-02-04T14:01:20.246Z,10.43
2018-02-04T14:03:49.314Z,10.47
2018-02-04T14:06:17.669Z,9.87
2018-02-04T14:08:45.894Z,10.10
2018-02-04T14:11:14.219Z,10.53
2018-02-04T14:13:42.476Z,9.23
2018-02-04T14:16:10.782Z,9.80
2018-02-04T14:18:39.035Z,9.63
2018-02-04T14:21:07.299Z,11.10
2018-02-04T14:23:35.579Z,10.40
2018-02-04T14:26:03.842Z,10.30
2018-02-04T14:28:32.114Z,10.00
2018-02-04T14:31:00.382Z,9.83
2018-02-04T14:33:28.657Z,10.10
2018-02-04T14:35:56.907Z,9.93
2018-02-04T14:38:25.171Z,9.43
2018-02-04T14:40:53.417Z,9.17
2018-02-04T14:43:22.478Z,8.23
2018-02-04T14:45:50.743Z,9.80
2018-02-04T14:48:19.023Z,9.63
2018-02-04T14:50:47.291Z,10.77
2018-02-04T14:53:15.568Z,10.63
2018-02-04T14:55:43.818Z,10.75
2018-02-04T14:58:12.957Z,9.30
2018-02-04T15:00:41.236Z,8.30
2018-02-04T15:03:09.498Z,10.00
2018-02-04T15:05:37.750Z,11.00
2018-02-04T15:08:06.784Z,9.00
2018-02-04T15:10:35.054Z,9.40
2018-02-04T15:13:03.333Z,9.35
2018-02-04T15:15:32.698Z,9.10
2018-02-04T15:18:00.936Z,9.60
2018-02-04T15:20:29.230Z,8.75
2018-02-04T15:22:57.540Z,8.30
2018-02-04T15:25:25.800Z,9.67
2018-02-04T15:27:54.053Z,9.00
2018-02-04T15:30:22.382Z,9.10
2018-02-04T15:32:50.622Z,9.20
2018-02-04T15:35:18.880Z,8.93
2018-02-04T15:37:47.152Z,9.13
2018-02-04T15:40:16.198Z,9.20
2018-02-04T15:42:44.470Z,8.60
2018-02-04T15:45:12.772Z,8.75
2018-02-04T15:47:41.046Z,8.80
2018-02-04T15:50:09.300Z,8.43
2018-02-04T15:52:37.553Z,8.63
2018-02-04T15:55:06.680Z,10.13
2018-02-04T15:57:34.986Z,9.10
2018-02-04T16:00:03.280Z,9.43
2018-02-04T16:02:31.540Z,8.17
2018-02-04T16:04:59.819Z,8.20
2018-02-04T16:07:28.079Z,8.53
2018-02-04T16:09:56.331Z,9.00
2018-02-04T16:12:25.358Z,8.90
2018-02-04T16:14:53.659Z,7.83
2018-02-04T16:17:21.969Z,10.20
2018-02-04T16:19:50.178Z,9.50
2018-02-04T16:22:19.208Z,10.00
2018-02-04T16:24:47.458Z,8.83
2018-02-04T16:27:15.744Z,9.65
2018-02-04T16:29:43.998Z,9.02
2018-02-04T16:32:13.018Z,9.73
2018-02-04T16:34:41.264Z,10.20
2018-02-04T16:37:10.301Z,10.25
2018-02-04T16:39:38.627Z,11.87
2018-02-04T16:42:06.986Z,10.63
2018-02-04T16:44:35.548Z,10.30
2018-02-04T16:47:04.563Z,9.60
2018-02-04T16:49:33.666Z,10.65
2018-02-04T16:52:02.047Z,10.50
2018-02-04T16:54:30.293Z,10.93
2018-02-04T16:56:58.577Z,12.32
2018-02-04T16:59:26.925Z,12.37
2018-02-04T17:01:56.122Z,10.52
2018-02-04T17:04:25.375Z,12.07
2018-02-04T17:06:53.668Z,10.65
2018-02-04T17:09:21.920Z,10.65
2018-02-04T17:11:50.231Z,10.55
2018-02-04T17:14:18.549Z,11.38
2018-02-04T17:16:46.903Z,11.07
2018-02-04T17:19:16.054Z,10.43
2018-02-04T17:21:45.957Z,10.35
2018-02-04T17:24:14.210Z,10.10
2018-02-04T17:26:42.486Z,10.65
2018-02-04T17:29:10.746Z,11.13
2018-02-04T17:31:39.002Z,10.23
2018-02-04T17:34:07.312Z,10.02
2018-02-04T17:36:35.571Z,9.38
2018-02-04T17:39:03.840Z,8.93
2018-02-04T17:41:32.089Z,9.45
2018-02-04T17:44:01.124Z,10.13
2018-02-04T17:46:29.381Z,8.50
2018-02-04T17:48:58.411Z,9.13
2018-02-04T17:51:26.664Z,8.25
2018-02-04T17:53:55.691Z,8.40
2018-02-04T17:56:23.942Z,9.65
2018-02-04T17:58:52.219Z,9.48
2018-02-04T18:01:20.466Z,9.53
2018-02-04T18:03:48.742Z,9.05
2018-02-04T18:06:17.085Z,8.35
2018-02-04T18:08:45.357Z,8.65
2018-02-04T18:11:13.643Z,9.95
2018-02-04T18:13:41.914Z,8.52
2018-02-04T18:16:10.222Z,9.20
2018-02-04T18:18:38.523Z,9.43
2018-02-04T18:21:06.775Z,9.03
2018-02-04T18:23:35.051Z,8.73
2018-02-04T18:26:03.311Z,10.10
2018-02-04T18:28:31.635Z,9.90
2018-02-04T18:30:59.876Z,9.70
2018-02-04T18:33:28.158Z,8.88
2018-02-04T18:35:56.420Z,9.30
2018-02-04T18:38:24.690Z,9.13
2018-02-04T18:40:53.000Z,9.68
2018-02-04T18:43:21.283Z,8.95
2018-02-04T18:45:49.530Z,8.90
2018-02-04T18:48:17.813Z,9.97
2018-02-04T18:50:46.057Z,9.50
2018-02-04T18:53:14.344Z,9.30
2018-02-04T18:55:42.678Z,9.93
2018-02-04T18:58:10.939Z,9.32
2018-02-04T19:00:39.233Z,10.40
2018-02-04T19:03:07.515Z,8.73
2018-02-04T19:05:35.770Z,9.37
2018-02-04T19:08:04.045Z,10.70
2018-02-04T19:10:32.298Z,9.55
2018-02-04T19:13:01.575Z,8.60
2018-02-04T19:15:29.845Z,9.27
2018-02-04T19:17:58.121Z,10.23
2018-02-04T19:20:26.439Z,9.88
2018-02-04T19:22:54.684Z,11.90
2018-02-04T19:25:22.958Z,8.93
2018-02-04T19:27:51.522Z,9.90
2018-02-04T19:30:19.849Z,9.77
2018-02-04T19:32:48.110Z,11.47
2018-02-04T19:35:16.381Z,10.05
2018-02-04T19:37:44.655Z,10.32
2018-02-04T19:40:12.915Z,9.33
2018-02-04T19:42:41.938Z,10.18
2018-02-04T19:45:10.194Z,8.48
2018-02-04T19:47:38.507Z,10.57
2018-02-04T19:50:06.757Z,9.40
2018-02-04T19:52:35.790Z,10.40
2018-02-04T19:55:04.031Z,9.65
2018-02-04T19:57:32.297Z,8.98
2018-02-04T20:00:01.333Z,8.88
2018-02-04T20:02:29.618Z,8.75
2018-02-04T20:04:57.897Z,8.70
2018-02-04T20:07:26.174Z,9.23
2018-02-04T20:09:54.426Z,8.95
2018-02-04T20:12:22.744Z,9.15
2018-02-04T20:14:51.006Z,8.57
2018-02-04T20:17:19.299Z,9.30
2018-02-04T20:19:47.615Z,9.30
2018-02-04T20:22:15.857Z,8.20
2018-02-04T20:24:44.156Z,8.10
2018-02-04T20:27:12.378Z,9.68
2018-02-04T20:29:41.430Z,8.68
2018-02-04T20:32:21.722Z,8.80
2018-02-04T20:34:52.738Z,8.50
2018-02-04T20:37:21.097Z,7.82
2018-02-04T20:39:49.386Z,8.10
2018-02-04T20:42:17.631Z,7.90
2018-02-04T20:44:45.953Z,8.80
2018-02-04T20:47:14.213Z,8.80
2018-02-04T20:49:42.475Z,8.93
2018-02-04T20:52:10.732Z,8.60
2018-02-04T20:54:39.754Z,8.80
2018-02-04T20:57:08.068Z,9.23
2018-02-04T20:59:36.333Z,8.47
2018-02-04T21:02:04.718Z,9.50
2018-02-04T21:04:33.004Z,7.87
2018-02-04T21:07:01.261Z,9.00
2018-02-04T21:09:29.529Z,9.98
2018-02-04T21:11:57.836Z,8.75
2018-02-04T21:14:26.103Z,8.32
2018-02-04T21:16:54.390Z,8.73
2018-02-04T21:19:22.703Z,7.53
2018-02-04T21:21:50.922Z,10.60
2018-02-04T21:24:19.186Z,8.18
2018-02-04T21:26:47.468Z,7.70
2018-02-04T21:29:15.794Z,9.32
2018-02-04T21:31:44.256Z,10.55
2018-02-04T21:34:12.549Z,9.35
2018-02-04T21:36:40.800Z,9.32
2018-02-04T21:39:09.079Z,8.73
2018-02-04T21:41:37.329Z,9.63
2018-02-04T21:44:05.577Z,7.93
2018-02-04T21:46:33.817Z,9.65
2018-02-04T21:49:02.078Z,9.93
2018-02-04T21:51:30.312Z,8.10
2018-02-04T21:53:58.787Z,8.95
2018-02-04T21:56:27.010Z,8.70
2018-02-04T21:58:55.269Z,9.17
2018-02-04T22:01:23.570Z,9.57
2018-02-04T22:03:51.764Z,8.57
2018-02-04T22:06:21.800Z,8.47
2018-02-04T22:08:50.068Z,9.10
2018-02-04T22:11:19.476Z,7.70
2018-02-04T22:13:48.501Z,8.63
2018-02-04T22:16:16.735Z,9.37
2018-02-04T22:18:45.747Z,8.07
2018-02-04T22:21:13.992Z,8.07
2018-02-04T22:23:42.243Z,7.90
2018-02-04T22:26:10.475Z,8.73
2018-02-04T22:28:38.735Z,9.65
2018-02-04T22:31:07.739Z,8.50
2018-02-04T22:33:36.004Z,9.07
2018-02-04T22:36:05.012Z,8.70
2018-02-04T22:38:33.656Z,9.15
2018-02-04T22:41:01.883Z,9.48
2018-02-04T22:43:30.153Z,9.05
2018-02-04T22:45:58.396Z,9.15
2018-02-04T22:48:26.663Z,9.95
2018-02-04T22:50:54.910Z,8.50
2018-02-04T22:53:23.172Z,10.47
2018-02-04T22:55:51.435Z,9.25
2018-02-04T22:58:19.689Z,9.52
2018-02-04T23:00:48.700Z,8.75
2018-02-04T23:03:16.976Z,11.77
2018-02-04T23:05:45.227Z,9.60
2018-02-04T23:08:13.471Z,9.77
2018-02-04T23:10:41.732Z,9.33
2018-02-04T23:13:10.007Z,9.40
2018-02-04T23:15:39.051Z,10.00
2018-02-04T23:18:07.267Z,10.10
2018-02-04T23:20:35.533Z,10.20
2018-02-04T23:23:03.804Z,10.35
2018-02-04T23:25:32.875Z,9.73
2018-02-04T23:28:01.095Z,10.70
2018-02-04T23:30:29.364Z,9.73
2018-02-04T23:32:57.629Z,10.35
2018-02-04T23:35:25.904Z,10.43
2018-02-04T23:37:54.903Z,10.73
2018-02-04T23:40:23.169Z,10.30
2018-02-04T23:42:52.263Z,9.88
2018-02-04T23:45:21.292Z,9.80
2018-02-04T23:47:49.532Z,10.23
2018-02-04T23:50:18.564Z,10.30
2018-02-04T23:52:46.803Z,11.30
2018-02-04T23:57:49.552Z,10.63
